createdAt,value
2022-09-27T00:00:22.927Z,68.80
2022-09-27T00:01:22.966Z,68.86
2022-09-27T00:02:22.946Z,68.88
2022-09-27T00:03:22.906Z,68.88
2022-09-27T00:04:22.887Z,68.95
2022-09-27T00:05:23.047Z,68.92
2022-09-27T00:06:22.865Z,68.86
2022-09-27T00:07:22.855Z,68.86
2022-09-27T00:08:22.836Z,68.88
2022-09-27T00:09:22.834Z,68.89
2022-09-27T00:10:22.832Z,68.94
2022-09-27T00:11:23.137Z,68.93
2022-09-27T00:12:22.795Z,68.96
2022-09-27T00:13:22.788Z,68.95
2022-09-27T00:14:22.768Z,69.02
2022-09-27T00:15:22.757Z,69.10
2022-09-27T00:16:22.836Z,69.17
2022-09-27T00:17:23.159Z,69.18
2022-09-27T00:18:22.740Z,69.21
2022-09-27T00:19:22.718Z,69.21
2022-09-27T00:20:22.712Z,69.22
2022-09-27T00:21:22.704Z,69.25
2022-09-27T00:22:22.697Z,69.27
2022-09-27T00:23:22.869Z,69.21
2022-09-27T00:24:22.675Z,69.19
2022-09-27T00:25:22.648Z,69.13
2022-09-27T00:26:22.657Z,69.10
2022-09-27T00:27:22.628Z,69.12
2022-09-27T00:28:22.621Z,69.08
2022-09-27T00:29:22.761Z,69.05
2022-09-27T00:30:22.615Z,69.07
2022-09-27T00:31:22.733Z,69.10
2022-09-27T00:32:22.578Z,69.08
2022-09-27T00:33:22.548Z,69.01
2022-09-27T00:34:22.776Z,68.99
2022-09-27T00:35:22.537Z,69.07
2022-09-27T00:36:22.535Z,69.08
2022-09-27T00:37:22.517Z,69.04
2022-09-27T00:38:22.516Z,69.08
2022-09-27T00:39:22.508Z,69.09
2022-09-27T00:40:22.695Z,69.04
2022-09-27T00:41:22.491Z,68.97
2022-09-27T00:42:22.482Z,68.97
2022-09-27T00:43:22.486Z,68.89
2022-09-27T00:44:22.466Z,68.93
2022-09-27T00:45:22.609Z,68.90
2022-09-27T00:46:22.509Z,68.94
2022-09-27T00:47:22.420Z,68.95
2022-09-27T00:48:22.416Z,68.99
2022-09-27T00:49:22.398Z,68.99
2022-09-27T00:50:22.536Z,69.03
2022-09-27T00:51:22.377Z,69.17
2022-09-27T00:52:22.369Z,69.29
2022-09-27T00:53:22.343Z,69.44
2022-09-27T00:54:22.344Z,69.54
2022-09-27T00:55:22.493Z,69.61
2022-09-27T00:56:22.484Z,69.73
2022-09-27T00:57:22.306Z,69.80
2022-09-27T00:58:22.299Z,69.85
2022-09-27T00:59:22.288Z,69.97
2022-09-27T01:00:22.266Z,70.03
2022-09-27T01:01:22.460Z,70.02
2022-09-27T01:02:22.336Z,70.13
2022-09-27T01:03:22.239Z,70.25
2022-09-27T01:04:22.228Z,70.31
2022-09-27T01:05:22.209Z,70.34
2022-09-27T01:06:22.379Z,70.32
2022-09-27T01:07:22.188Z,70.30
2022-09-27T01:08:22.188Z,70.37
2022-09-27T01:09:22.202Z,70.33
2022-09-27T01:10:22.159Z,70.41
2022-09-27T01:11:22.301Z,70.47
2022-09-27T01:12:22.147Z,70.47
2022-09-27T01:13:22.125Z,70.53
2022-09-27T01:14:22.123Z,70.55
2022-09-27T01:15:22.102Z,70.56
2022-09-27T01:16:22.408Z,70.56
2022-09-27T01:17:22.082Z,70.62
2022-09-27T01:18:22.072Z,70.88
2022-09-27T01:19:22.058Z,70.93
2022-09-27T01:20:22.070Z,70.86
2022-09-27T01:21:22.187Z,70.89
2022-09-27T01:22:22.043Z,71.09
2022-09-27T01:23:22.022Z,71.23
2022-09-27T01:24:22.017Z,71.39
2022-09-27T01:25:22.000Z,71.35
2022-09-27T01:26:22.735Z,71.42
2022-09-27T01:27:21.978Z,71.41
2022-09-27T01:28:21.972Z,71.42
2022-09-27T01:29:21.956Z,71.40
2022-09-27T01:30:21.947Z,71.30
2022-09-27T01:31:21.995Z,71.26
2022-09-27T01:32:22.132Z,71.30
2022-09-27T01:33:21.918Z,71.38
2022-09-27T01:34:21.897Z,71.32
2022-09-27T01:35:21.887Z,71.39
2022-09-27T01:36:21.886Z,71.39
2022-09-27T01:37:22.016Z,71.41
2022-09-27T01:38:21.866Z,71.50
2022-09-27T01:39:21.841Z,71.63
2022-09-27T01:40:21.952Z,71.70
2022-09-27T01:41:21.825Z,71.77
2022-09-27T01:42:22.509Z,71.78
2022-09-27T01:43:22.027Z,71.86
2022-09-27T01:44:21.798Z,71.76
2022-09-27T01:45:21.786Z,71.73
2022-09-27T01:46:21.877Z,71.67
2022-09-27T01:47:21.768Z,71.73
2022-09-27T01:48:21.917Z,71.66
2022-09-27T01:49:21.759Z,71.58
2022-09-27T01:50:21.778Z,71.55
2022-09-27T01:51:21.720Z,71.55
2022-09-27T01:52:21.717Z,71.44
2022-09-27T01:53:22.081Z,71.36
2022-09-27T01:54:21.697Z,71.33
2022-09-27T01:55:21.684Z,71.28
2022-09-27T01:56:21.722Z,71.18
2022-09-27T01:57:21.640Z,71.31
2022-09-27T01:58:21.642Z,71.29
2022-09-27T01:59:21.855Z,71.45
2022-09-27T02:00:21.667Z,71.66
2022-09-27T02:01:21.662Z,71.72
2022-09-27T02:02:21.653Z,71.82
2022-09-27T02:03:21.586Z,71.93
2022-09-27T02:04:21.579Z,71.96
2022-09-27T02:05:21.935Z,72.10
2022-09-27T02:06:21.548Z,72.08
2022-09-27T02:07:21.528Z,72.20
2022-09-27T02:08:21.525Z,72.25
2022-09-27T02:09:21.514Z,72.41
2022-09-27T02:10:21.514Z,72.51
2022-09-27T02:11:21.885Z,72.62
2022-09-27T02:12:21.497Z,72.80
2022-09-27T02:13:21.463Z,72.97
2022-09-27T02:14:21.481Z,73.09
2022-09-27T02:15:21.484Z,73.19
2022-09-27T02:16:21.509Z,73.32
2022-09-27T02:17:21.772Z,73.31
2022-09-27T02:18:21.417Z,73.50
2022-09-27T02:19:21.405Z,73.66
2022-09-27T02:20:21.387Z,73.64
2022-09-27T02:21:21.407Z,73.57
2022-09-27T02:22:21.382Z,73.61
2022-09-27T02:23:21.588Z,73.66
2022-09-27T02:24:21.362Z,73.93
2022-09-27T02:25:21.333Z,73.81
2022-09-27T02:26:21.326Z,73.68
2022-09-27T02:27:21.317Z,73.91
2022-09-27T02:28:21.314Z,73.92
2022-09-27T02:29:21.606Z,73.94
2022-09-27T02:30:21.280Z,74.06
2022-09-27T02:31:21.375Z,73.98
2022-09-27T02:32:21.258Z,74.30
2022-09-27T02:33:21.253Z,74.31
2022-09-27T02:34:21.238Z,74.18
2022-09-27T02:35:21.565Z,74.50
2022-09-27T02:36:21.223Z,74.76
2022-09-27T02:37:21.216Z,75.00
2022-09-27T02:38:21.196Z,75.03
2022-09-27T02:39:21.188Z,75.04
2022-09-27T02:40:21.199Z,74.97
2022-09-27T02:41:21.324Z,75.09
2022-09-27T02:42:21.157Z,75.05
2022-09-27T02:43:21.143Z,75.03
2022-09-27T02:44:21.143Z,74.99
2022-09-27T02:45:21.127Z,75.20
2022-09-27T02:46:21.145Z,75.39
2022-09-27T02:47:21.455Z,75.58
2022-09-27T02:48:21.095Z,75.81
2022-09-27T02:49:21.072Z,75.75
2022-09-27T02:50:21.065Z,75.68
2022-09-27T02:51:21.055Z,75.98
2022-09-27T02:52:21.046Z,76.11
2022-09-27T02:53:21.350Z,76.22
2022-09-27T02:54:21.027Z,76.51
2022-09-27T02:55:21.007Z,76.93
2022-09-27T02:56:20.998Z,76.95
2022-09-27T02:57:20.986Z,76.92
2022-09-27T02:58:20.986Z,76.77
2022-09-27T02:59:21.187Z,76.68
2022-09-27T03:00:20.987Z,76.58
2022-09-27T03:01:21.025Z,76.68
2022-09-27T03:02:20.959Z,76.56
2022-09-27T03:03:20.926Z,76.74
2022-09-27T03:04:20.926Z,77.12
2022-09-27T03:05:21.355Z,77.14
2022-09-27T03:06:20.895Z,77.09
2022-09-27T03:07:20.876Z,76.93
2022-09-27T03:08:20.871Z,76.88
2022-09-27T03:09:20.855Z,76.88
2022-09-27T03:10:20.851Z,76.67
2022-09-27T03:11:20.997Z,76.84
2022-09-27T03:12:20.839Z,76.64
2022-09-27T03:13:20.818Z,76.43
2022-09-27T03:14:20.814Z,76.29
2022-09-27T03:15:20.804Z,76.26
2022-09-27T03:16:20.836Z,76.14
2022-09-27T03:17:21.110Z,76.25
2022-09-27T03:18:20.759Z,76.10
2022-09-27T03:19:20.761Z,76.14
2022-09-27T03:20:20.745Z,76.16
2022-09-27T03:21:20.726Z,76.20
2022-09-27T03:22:20.714Z,76.15
2022-09-27T03:23:20.872Z,76.17
2022-09-27T03:24:20.705Z,76.15
2022-09-27T03:25:20.686Z,76.24
2022-09-27T03:26:20.686Z,76.32
2022-09-27T03:27:20.665Z,76.55
2022-09-27T03:28:20.652Z,76.62
2022-09-27T03:29:20.801Z,76.67
2022-09-27T03:30:20.637Z,76.74
2022-09-27T03:31:20.671Z,76.67
2022-09-27T03:32:20.608Z,76.64
2022-09-27T03:33:20.607Z,76.67
2022-09-27T03:34:20.737Z,76.89
2022-09-27T03:35:20.582Z,77.02
2022-09-27T03:36:20.575Z,77.25
2022-09-27T03:37:20.549Z,77.34
2022-09-27T03:38:20.541Z,77.30
2022-09-27T03:39:21.277Z,77.30
2022-09-27T03:40:20.563Z,77.38
2022-09-27T03:41:20.506Z,77.46
2022-09-27T03:42:20.503Z,77.58
2022-09-27T03:43:20.486Z,77.73
2022-09-27T03:44:20.475Z,77.77
2022-09-27T03:45:20.626Z,77.86
2022-09-27T03:46:20.530Z,77.96
2022-09-27T03:47:20.442Z,77.98
2022-09-27T03:48:24.494Z,77.94
2022-09-27T03:49:21.606Z,77.74
2022-09-27T03:50:20.406Z,77.57
2022-09-27T03:51:20.405Z,77.71
2022-09-27T03:52:20.398Z,77.50
2022-09-27T03:53:20.377Z,77.53
2022-09-27T03:54:20.378Z,77.52
2022-09-27T03:55:20.516Z,77.56
2022-09-27T03:56:20.353Z,77.77
2022-09-27T03:57:20.324Z,77.73
2022-09-27T03:58:20.334Z,77.78
2022-09-27T03:59:20.315Z,77.72
2022-09-27T04:00:20.305Z,77.71
2022-09-27T04:01:20.652Z,77.97
2022-09-27T04:02:20.368Z,77.98
2022-09-27T04:03:20.275Z,77.94
2022-09-27T04:04:20.268Z,77.94
2022-09-27T04:05:20.255Z,77.92
2022-09-27T04:06:20.248Z,78.14
2022-09-27T04:07:20.375Z,78.03
2022-09-27T04:08:20.219Z,77.73
2022-09-27T04:09:20.209Z,77.44
2022-09-27T04:10:20.209Z,77.41
2022-09-27T04:11:20.186Z,77.32
2022-09-27T04:12:20.343Z,77.18
2022-09-27T04:13:20.163Z,77.19
2022-09-27T04:14:20.154Z,77.10
2022-09-27T04:15:20.134Z,76.80
2022-09-27T04:16:20.180Z,76.72
2022-09-27T04:17:20.115Z,76.72
2022-09-27T04:18:20.294Z,76.69
2022-09-27T04:19:20.097Z,76.89
2022-09-27T04:20:20.091Z,76.78
2022-09-27T04:21:20.080Z,76.68
2022-09-27T04:22:20.064Z,76.60
2022-09-27T04:23:20.049Z,76.61
2022-09-27T04:24:20.204Z,76.62
2022-09-27T04:25:20.039Z,76.60
2022-09-27T04:26:20.027Z,76.56
2022-09-27T04:27:20.024Z,76.60
2022-09-27T04:28:20.006Z,76.59
2022-09-27T04:29:20.004Z,76.46
2022-09-27T04:30:20.143Z,76.51
2022-09-27T04:31:20.066Z,76.59
2022-09-27T04:32:19.966Z,76.48
2022-09-27T04:33:19.951Z,76.45
2022-09-27T04:34:19.934Z,76.47
2022-09-27T04:35:19.926Z,76.46
2022-09-27T04:36:20.066Z,76.38
2022-09-27T04:37:19.898Z,76.25
2022-09-27T04:38:19.895Z,76.24
2022-09-27T04:39:19.892Z,76.17
2022-09-27T04:40:19.934Z,76.16
2022-09-27T04:41:19.856Z,76.20
2022-09-27T04:42:20.143Z,76.18
2022-09-27T04:43:19.849Z,76.03
2022-09-27T04:44:19.825Z,76.15
2022-09-27T04:45:19.833Z,76.03
2022-09-27T04:46:19.898Z,76.01
2022-09-27T04:47:19.789Z,75.88
2022-09-27T04:48:20.030Z,75.90
2022-09-27T04:49:19.881Z,75.94
2022-09-27T04:50:19.754Z,75.93
2022-09-27T04:51:19.807Z,75.83
2022-09-27T04:52:19.752Z,75.89
2022-09-27T04:53:19.733Z,75.73
2022-09-27T04:54:19.943Z,75.99
2022-09-27T04:55:19.737Z,76.12
2022-09-27T04:56:19.713Z,76.04
2022-09-27T04:57:19.693Z,76.09
2022-09-27T04:58:19.677Z,76.09
2022-09-27T04:59:19.981Z,76.12
2022-09-27T05:00:19.657Z,76.03
2022-09-27T05:01:19.743Z,75.95
2022-09-27T05:02:19.667Z,76.08
2022-09-27T05:03:19.632Z,76.08
2022-09-27T05:04:19.603Z,76.00
2022-09-27T05:05:19.800Z,76.02
2022-09-27T05:06:19.608Z,76.02
2022-09-27T05:07:19.593Z,76.11
2022-09-27T05:08:19.556Z,76.33
2022-09-27T05:09:19.561Z,76.46
2022-09-27T05:10:19.534Z,76.85
2022-09-27T05:11:19.708Z,77.11
2022-09-27T05:12:19.517Z,76.62
2022-09-27T05:13:19.517Z,76.87
2022-09-27T05:14:19.508Z,76.46
2022-09-27T05:15:19.510Z,76.08
2022-09-27T05:16:19.526Z,75.96
2022-09-27T05:17:19.684Z,75.78
2022-09-27T05:18:19.474Z,75.74
2022-09-27T05:19:19.467Z,75.70
2022-09-27T05:20:19.428Z,75.83
2022-09-27T05:21:19.429Z,75.80
2022-09-27T05:22:19.413Z,75.86
2022-09-27T05:23:19.634Z,75.81
2022-09-27T05:24:19.401Z,75.89
2022-09-27T05:25:19.376Z,75.91
2022-09-27T05:26:19.364Z,75.85
2022-09-27T05:27:19.438Z,75.90
2022-09-27T05:28:19.423Z,76.02
2022-09-27T05:29:19.614Z,76.15
2022-09-27T05:30:19.323Z,76.17
2022-09-27T05:31:19.337Z,76.18
2022-09-27T05:32:19.308Z,76.15
2022-09-27T05:33:19.308Z,76.18
2022-09-27T05:34:19.289Z,76.23
2022-09-27T05:35:19.430Z,76.32
2022-09-27T05:36:19.254Z,76.41
2022-09-27T05:37:19.238Z,76.48
2022-09-27T05:38:19.244Z,76.52
2022-09-27T05:39:19.227Z,76.53
2022-09-27T05:40:39.722Z,76.56
2022-09-27T05:41:20.461Z,76.62
2022-09-27T05:42:19.213Z,76.66
2022-09-27T05:43:19.185Z,76.74
2022-09-27T05:44:19.165Z,76.67
2022-09-27T05:45:19.221Z,76.65
2022-09-27T05:46:20.034Z,76.73
2022-09-27T05:47:19.392Z,76.77
2022-09-27T05:48:19.393Z,76.92
2022-09-27T05:49:19.653Z,76.97
2022-09-27T05:50:19.913Z,77.08
2022-09-27T05:51:20.090Z,77.24
2022-09-27T05:52:20.263Z,77.40
2022-09-27T05:53:20.037Z,77.41
2022-09-27T05:54:19.071Z,77.49
2022-09-27T05:55:19.195Z,77.47
2022-09-27T05:56:19.043Z,77.36
2022-09-27T05:57:19.059Z,77.39
2022-09-27T05:58:19.014Z,77.37
2022-09-27T05:59:19.166Z,77.35
2022-09-27T06:00:19.022Z,77.37
2022-09-27T06:01:19.014Z,77.35
2022-09-27T06:02:19.013Z,77.30
2022-09-27T06:03:18.956Z,77.13
2022-09-27T06:04:18.942Z,77.09
2022-09-27T06:05:19.095Z,77.10
2022-09-27T06:06:18.912Z,77.15
2022-09-27T06:07:18.908Z,77.08
2022-09-27T06:08:18.904Z,77.04
2022-09-27T06:09:18.895Z,77.06
2022-09-27T06:10:18.884Z,76.97
2022-09-27T06:11:19.048Z,76.96
2022-09-27T06:12:18.853Z,77.01
2022-09-27T06:13:18.852Z,76.95
2022-09-27T06:14:18.845Z,77.03
2022-09-27T06:15:18.824Z,76.95
2022-09-27T06:16:18.909Z,76.89
2022-09-27T06:17:18.966Z,77.07
2022-09-27T06:18:18.820Z,77.02
2022-09-27T06:19:18.779Z,77.02
2022-09-27T06:20:18.768Z,77.00
2022-09-27T06:21:18.764Z,76.89
2022-09-27T06:22:18.748Z,76.85
2022-09-27T06:23:18.901Z,76.97
2022-09-27T06:24:18.735Z,77.06
2022-09-27T06:25:18.722Z,77.08
2022-09-27T06:26:18.703Z,77.13
2022-09-27T06:27:18.711Z,77.15
2022-09-27T06:28:18.682Z,77.28
2022-09-27T06:29:18.832Z,77.33
2022-09-27T06:30:20.543Z,77.45
2022-09-27T06:31:18.696Z,77.56
2022-09-27T06:32:18.637Z,77.63
2022-09-27T06:33:18.641Z,77.72
2022-09-27T06:34:18.623Z,77.82
2022-09-27T06:35:18.625Z,77.77
2022-09-27T06:36:18.605Z,77.63
2022-09-27T06:37:18.594Z,77.71
2022-09-27T06:38:18.579Z,77.73
2022-09-27T06:39:18.563Z,77.83
2022-09-27T06:40:19.455Z,77.77
2022-09-27T06:41:19.991Z,77.73
2022-09-27T06:42:18.541Z,77.79
2022-09-27T06:43:18.551Z,77.68
2022-09-27T06:44:18.544Z,77.81
2022-09-27T06:45:18.496Z,77.89
2022-09-27T06:46:18.545Z,77.88
2022-09-27T06:47:18.653Z,77.95
2022-09-27T06:48:18.492Z,78.08
2022-09-27T06:49:18.639Z,78.24
2022-09-27T06:50:18.484Z,78.35
2022-09-27T06:51:18.447Z,78.44
2022-09-27T06:52:18.421Z,78.46
2022-09-27T06:53:18.405Z,78.41
2022-09-27T06:54:18.409Z,78.51
2022-09-27T06:55:18.551Z,78.53
2022-09-27T06:56:18.371Z,78.60
2022-09-27T06:57:18.365Z,78.69
2022-09-27T06:58:18.352Z,78.72
2022-09-27T06:59:18.342Z,78.72
2022-09-27T07:00:18.333Z,78.80
2022-09-27T07:01:18.752Z,78.88
2022-09-27T07:02:18.342Z,78.88
2022-09-27T07:03:18.301Z,78.82
2022-09-27T07:04:18.302Z,78.95
2022-09-27T07:05:18.301Z,79.03
2022-09-27T07:06:18.265Z,78.98
2022-09-27T07:07:18.467Z,79.01
2022-09-27T07:08:18.240Z,79.02
2022-09-27T07:09:18.250Z,79.11
2022-09-27T07:10:18.234Z,79.10
2022-09-27T07:11:18.216Z,79.10
2022-09-27T07:12:18.201Z,79.04
2022-09-27T07:13:18.371Z,78.89
2022-09-27T07:14:18.188Z,79.08
2022-09-27T07:15:18.172Z,79.03
2022-09-27T07:16:18.210Z,79.00
2022-09-27T07:17:18.152Z,79.06
2022-09-27T07:18:18.141Z,79.07
2022-09-27T07:19:18.347Z,79.05
2022-09-27T07:20:35.140Z,79.11
2022-09-27T07:21:18.108Z,79.03
2022-09-27T07:22:18.102Z,78.90
2022-09-27T07:23:18.091Z,78.81
2022-09-27T07:24:18.091Z,78.74
2022-09-27T07:25:18.242Z,78.70
2022-09-27T07:26:18.060Z,78.63
2022-09-27T07:27:18.037Z,78.77
2022-09-27T07:28:21.785Z,78.77
2022-09-27T07:29:18.028Z,78.78
2022-09-27T07:30:18.011Z,78.77
2022-09-27T07:31:18.205Z,78.64
2022-09-27T07:32:17.992Z,77.67
2022-09-27T07:33:17.992Z,77.63
2022-09-27T07:34:17.989Z,77.79
2022-09-27T07:35:17.962Z,78.01
2022-09-27T07:36:17.985Z,78.36
2022-09-27T07:37:18.257Z,78.51
2022-09-27T07:38:17.925Z,78.31
2022-09-27T07:39:17.973Z,78.19
2022-09-27T07:40:17.930Z,78.15
2022-09-27T07:41:17.891Z,77.92
2022-09-27T07:42:17.881Z,78.08
2022-09-27T07:43:18.025Z,77.90
2022-09-27T07:44:17.859Z,77.64
2022-09-27T07:45:17.842Z,77.72
2022-09-27T07:46:17.877Z,77.85
2022-09-27T07:47:17.831Z,77.59
2022-09-27T07:48:17.811Z,77.60
2022-09-27T07:49:17.962Z,77.45
2022-09-27T07:50:17.782Z,77.17
2022-09-27T07:51:17.790Z,77.22
2022-09-27T07:52:17.779Z,77.20
2022-09-27T07:53:17.761Z,77.03
2022-09-27T07:54:17.741Z,76.98
2022-09-27T07:55:18.024Z,76.74
2022-09-27T07:56:17.735Z,76.78
2022-09-27T07:57:17.732Z,76.84
2022-09-27T07:58:17.710Z,76.90
2022-09-27T07:59:17.690Z,76.53
2022-09-27T08:00:17.700Z,76.15
2022-09-27T08:01:17.908Z,76.35
2022-09-27T08:02:17.840Z,76.44
2022-09-27T08:03:17.648Z,76.15
2022-09-27T08:04:17.644Z,75.94
2022-09-27T08:05:17.621Z,75.89
2022-09-27T08:06:17.622Z,76.09
2022-09-27T08:07:17.781Z,75.83
2022-09-27T08:08:17.590Z,75.49
2022-09-27T08:09:17.593Z,74.86
2022-09-27T08:10:17.571Z,74.75
2022-09-27T08:11:18.511Z,74.90
2022-09-27T08:12:17.563Z,75.12
2022-09-27T08:13:17.700Z,74.74
2022-09-27T08:14:17.564Z,74.53
2022-09-27T08:15:17.533Z,74.32
2022-09-27T08:16:17.577Z,74.52
2022-09-27T08:17:17.535Z,74.40
2022-09-27T08:18:17.495Z,74.63
2022-09-27T08:19:17.898Z,74.32
2022-09-27T08:20:17.494Z,74.01
2022-09-27T08:21:17.462Z,74.12
2022-09-27T08:22:17.461Z,73.60
2022-09-27T08:23:17.439Z,73.09
2022-09-27T08:24:17.438Z,72.85
2022-09-27T08:25:17.500Z,72.96
2022-09-27T08:26:17.401Z,72.72
2022-09-27T08:27:17.380Z,72.64
2022-09-27T08:28:17.385Z,72.48
2022-09-27T08:29:17.360Z,72.43
2022-09-27T08:30:17.370Z,72.40
2022-09-27T08:31:17.431Z,72.59
2022-09-27T08:32:22.115Z,72.72
2022-09-27T08:33:18.324Z,72.73
2022-09-27T08:34:17.589Z,72.70
2022-09-27T08:35:17.293Z,72.80
2022-09-27T08:36:17.377Z,72.82
2022-09-27T08:37:17.495Z,72.85
2022-09-27T08:38:17.275Z,72.80
2022-09-27T08:39:17.506Z,72.98
2022-09-27T08:40:17.317Z,73.14
2022-09-27T08:41:17.262Z,73.37
2022-09-27T08:42:17.223Z,73.82
2022-09-27T08:43:17.411Z,73.88
2022-09-27T08:44:17.461Z,74.07
2022-09-27T08:45:17.201Z,74.23
2022-09-27T08:46:17.168Z,74.32
2022-09-27T08:47:17.231Z,74.51
2022-09-27T08:48:17.165Z,74.57
2022-09-27T08:49:17.361Z,74.88
2022-09-27T08:50:17.144Z,75.10
2022-09-27T08:51:17.142Z,75.33
2022-09-27T08:52:17.110Z,75.40
2022-09-27T08:53:17.135Z,75.37
2022-09-27T08:54:17.208Z,75.44
2022-09-27T08:55:17.340Z,75.40
2022-09-27T08:56:17.138Z,75.38
2022-09-27T08:57:17.125Z,75.10
2022-09-27T08:58:17.047Z,75.16
2022-09-27T08:59:17.049Z,75.63
2022-09-27T09:00:17.048Z,75.90
2022-09-27T09:01:17.252Z,76.07
2022-09-27T09:02:17.113Z,76.12
2022-09-27T09:03:17.028Z,76.22
2022-09-27T09:04:17.144Z,76.22
2022-09-27T09:05:16.990Z,76.22
2022-09-27T09:06:16.965Z,76.37
2022-09-27T09:07:17.111Z,76.27
2022-09-27T09:08:16.961Z,76.19
2022-09-27T09:09:16.943Z,76.14
2022-09-27T09:10:16.910Z,76.19
2022-09-27T09:11:16.904Z,76.48
2022-09-27T09:12:16.910Z,76.56
2022-09-27T09:13:17.237Z,76.81
2022-09-27T09:14:17.249Z,77.03
2022-09-27T09:15:16.908Z,77.26
2022-09-27T09:16:16.909Z,77.43
2022-09-27T09:17:16.899Z,77.47
2022-09-27T09:18:16.853Z,77.77
2022-09-27T09:19:17.073Z,77.85
2022-09-27T09:20:17.538Z,77.74
2022-09-27T09:21:16.820Z,77.89
2022-09-27T09:22:16.828Z,77.79
2022-09-27T09:23:16.806Z,77.94
2022-09-27T09:24:16.930Z,78.14
2022-09-27T09:25:16.983Z,78.23
2022-09-27T09:26:16.733Z,78.09
2022-09-27T09:27:16.800Z,78.09
2022-09-27T09:28:16.714Z,78.18
2022-09-27T09:29:16.714Z,78.32
2022-09-27T09:30:16.742Z,78.30
2022-09-27T09:31:16.982Z,78.51
2022-09-27T09:32:16.681Z,78.93
2022-09-27T09:33:16.863Z,78.99
2022-09-27T09:34:16.837Z,79.10
2022-09-27T09:35:16.679Z,78.84
2022-09-27T09:36:16.639Z,78.45
2022-09-27T09:37:16.780Z,78.35
2022-09-27T09:38:16.613Z,78.40
2022-09-27T09:39:16.613Z,78.59
2022-09-27T09:40:16.637Z,78.43
2022-09-27T09:41:16.580Z,78.33
2022-09-27T09:42:16.620Z,78.19
2022-09-27T09:43:16.922Z,78.41
2022-09-27T09:44:16.657Z,78.60
2022-09-27T09:45:16.540Z,78.87
2022-09-27T09:46:16.549Z,79.06
2022-09-27T09:47:16.510Z,79.16
2022-09-27T09:48:16.500Z,79.42
2022-09-27T09:49:17.084Z,79.25
2022-09-27T09:50:16.479Z,79.07
2022-09-27T09:51:16.483Z,78.71
2022-09-27T09:52:16.461Z,78.50
2022-09-27T09:53:16.464Z,78.56
2022-09-27T09:54:16.676Z,78.84
2022-09-27T09:55:16.859Z,78.99
2022-09-27T09:56:16.459Z,78.77
2022-09-27T09:57:16.401Z,78.62
2022-09-27T09:58:19.775Z,78.70
2022-09-27T09:59:16.397Z,78.86
2022-09-27T10:00:16.397Z,79.04
2022-09-27T10:01:16.606Z,79.23
2022-09-27T10:02:16.433Z,79.27
2022-09-27T10:03:16.359Z,79.23
2022-09-27T10:04:16.398Z,79.28
2022-09-27T10:05:16.329Z,79.27
2022-09-27T10:06:16.368Z,79.03
2022-09-27T10:07:16.458Z,78.79
2022-09-27T10:08:16.297Z,78.73
2022-09-27T10:09:16.324Z,78.90
2022-09-27T10:10:16.268Z,79.19
2022-09-27T10:11:16.278Z,79.39
2022-09-27T10:12:16.264Z,79.67
2022-09-27T10:13:16.613Z,79.14
2022-09-27T10:14:16.322Z,79.04
2022-09-27T10:15:16.212Z,79.04
2022-09-27T10:16:16.241Z,78.99
2022-09-27T10:17:16.198Z,78.92
2022-09-27T10:18:16.172Z,79.07
2022-09-27T10:19:16.342Z,79.05
2022-09-27T10:20:16.170Z,79.07
2022-09-27T10:21:16.187Z,78.89
2022-09-27T10:22:16.149Z,78.77
2022-09-27T10:23:16.114Z,78.91
2022-09-27T10:24:18.512Z,78.92
2022-09-27T10:25:16.260Z,78.67
2022-09-27T10:26:16.127Z,78.34
2022-09-27T10:27:16.083Z,78.40
2022-09-27T10:28:16.063Z,78.54
2022-09-27T10:29:16.060Z,78.63
2022-09-27T10:30:16.058Z,78.48
2022-09-27T10:31:16.421Z,78.22
2022-09-27T10:32:16.017Z,78.31
2022-09-27T10:33:16.038Z,78.32
2022-09-27T10:34:16.072Z,78.93
2022-09-27T10:35:19.133Z,79.15
2022-09-27T10:36:17.407Z,79.30
2022-09-27T10:37:15.962Z,79.50
2022-09-27T10:38:15.968Z,79.50
2022-09-27T10:39:15.938Z,79.37
2022-09-27T10:40:15.961Z,79.36
2022-09-27T10:41:15.934Z,79.51
2022-09-27T10:42:16.062Z,79.51
2022-09-27T10:43:15.908Z,79.42
2022-09-27T10:44:16.061Z,79.53
2022-09-27T10:45:15.880Z,79.50
2022-09-27T10:46:15.869Z,79.06
2022-09-27T10:47:15.909Z,78.89
2022-09-27T10:48:16.240Z,79.14
2022-09-27T10:49:15.926Z,79.37
2022-09-27T10:50:32.525Z,79.50
2022-09-27T10:51:16.907Z,79.28
2022-09-27T10:52:15.849Z,79.37
2022-09-27T10:53:15.806Z,79.34
2022-09-27T10:54:16.106Z,79.34
2022-09-27T10:55:15.798Z,79.32
2022-09-27T10:56:15.767Z,79.21
2022-09-27T10:57:15.767Z,79.02
2022-09-27T10:58:15.833Z,79.06
2022-09-27T10:59:15.762Z,79.02
2022-09-27T11:00:15.917Z,78.79
2022-09-27T11:01:15.812Z,78.34
2022-09-27T11:02:15.709Z,78.15
2022-09-27T11:03:15.691Z,77.96
2022-09-27T11:04:16.049Z,77.77
2022-09-27T11:05:16.104Z,77.63
2022-09-27T11:06:15.857Z,77.43
2022-09-27T11:07:15.684Z,77.34
2022-09-27T11:08:15.919Z,77.18
2022-09-27T11:09:15.740Z,76.88
2022-09-27T11:10:16.119Z,77.03
2022-09-27T11:11:15.724Z,76.73
2022-09-27T11:12:15.860Z,76.04
2022-09-27T11:13:15.657Z,75.70
2022-09-27T11:14:15.761Z,75.50
2022-09-27T11:15:15.598Z,75.53
2022-09-27T11:16:15.632Z,75.75
2022-09-27T11:17:15.619Z,75.88
2022-09-27T11:18:16.561Z,75.91
2022-09-27T11:19:15.823Z,75.95
2022-09-27T11:20:15.552Z,75.86
2022-09-27T11:21:15.582Z,75.91
2022-09-27T11:22:15.617Z,76.01
2022-09-27T11:23:15.536Z,75.77
2022-09-27T11:24:15.891Z,75.19
2022-09-27T11:25:15.529Z,74.75
2022-09-27T11:26:15.459Z,74.66
2022-09-27T11:27:15.539Z,74.62
2022-09-27T11:28:15.459Z,74.43
2022-09-27T11:29:15.520Z,74.51
2022-09-27T11:30:15.598Z,74.96
2022-09-27T11:31:19.641Z,75.19
2022-09-27T11:32:15.428Z,75.47
2022-09-27T11:33:15.410Z,75.56
2022-09-27T11:34:15.499Z,75.48
2022-09-27T11:35:15.429Z,75.65
2022-09-27T11:36:15.582Z,75.87
2022-09-27T11:37:15.389Z,75.92
2022-09-27T11:38:29.598Z,76.06
2022-09-27T11:39:16.532Z,76.09
2022-09-27T11:40:15.443Z,76.29
2022-09-27T11:41:15.403Z,76.37
2022-09-27T11:42:15.699Z,76.44
2022-09-27T11:43:15.327Z,76.48
2022-09-27T11:44:15.334Z,76.42
2022-09-27T11:46:20.821Z,75.84
2022-09-27T11:47:16.692Z,75.40
2022-09-27T11:48:15.213Z,75.35
2022-09-27T11:49:15.373Z,75.51
2022-09-27T11:50:15.294Z,75.22
2022-09-27T11:51:15.210Z,74.20
2022-09-27T11:52:15.217Z,73.51
2022-09-27T11:53:15.377Z,73.19
2022-09-27T11:54:22.625Z,73.25
2022-09-27T11:55:15.106Z,73.48
2022-09-27T11:56:15.116Z,74.11
2022-09-27T11:57:15.094Z,74.27
2022-09-27T11:58:15.101Z,73.96
2022-09-27T11:59:15.346Z,73.22
2022-09-27T12:00:15.087Z,73.08
2022-09-27T12:01:15.056Z,73.15
2022-09-27T12:02:15.154Z,72.38
2022-09-27T12:03:15.020Z,71.54
2022-09-27T12:04:15.010Z,71.92
2022-09-27T12:05:15.363Z,72.20
2022-09-27T12:06:15.001Z,72.56
2022-09-27T12:07:15.376Z,72.99
2022-09-27T12:08:14.963Z,72.93
2022-09-27T12:09:14.970Z,72.59
2022-09-27T12:10:14.973Z,72.63
2022-09-27T12:11:15.108Z,71.93
2022-09-27T12:12:14.917Z,71.45
2022-09-27T12:13:15.136Z,71.71
2022-09-27T12:14:14.894Z,72.13
2022-09-27T12:15:14.889Z,72.40
2022-09-27T12:16:14.900Z,72.55
2022-09-27T12:17:14.863Z,71.84
2022-09-27T12:18:14.855Z,71.60
2022-09-27T12:19:14.895Z,70.95
2022-09-27T12:20:14.836Z,70.68
2022-09-27T12:21:14.819Z,70.60
2022-09-27T12:22:14.823Z,70.11
2022-09-27T12:23:14.821Z,69.89
2022-09-27T12:24:14.798Z,69.68
2022-09-27T12:25:20.324Z,69.72
2022-09-27T12:26:15.776Z,69.94
2022-09-27T12:27:14.758Z,70.00
2022-09-27T12:28:14.823Z,70.09
2022-09-27T12:29:14.880Z,70.21
2022-09-27T12:30:14.745Z,70.35
2022-09-27T12:31:28.866Z,70.79
2022-09-27T12:32:15.840Z,71.28
2022-09-27T12:33:14.692Z,71.53
2022-09-27T12:34:18.883Z,71.64
2022-09-27T12:35:15.677Z,71.92
2022-09-27T12:36:14.658Z,72.07
2022-09-27T12:37:14.825Z,72.39
2022-09-27T12:38:14.642Z,72.47
2022-09-27T12:39:14.696Z,72.37
2022-09-27T12:40:14.659Z,72.02
2022-09-27T12:41:14.608Z,72.10
2022-09-27T12:42:14.597Z,71.58
2022-09-27T12:43:14.745Z,71.62
2022-09-27T12:44:14.720Z,71.95
2022-09-27T12:45:14.579Z,72.01
2022-09-27T12:46:14.581Z,72.39
2022-09-27T12:47:14.544Z,72.17
2022-09-27T12:48:14.535Z,72.22
2022-09-27T12:49:14.845Z,72.11
2022-09-27T12:50:14.527Z,72.01
2022-09-27T12:51:14.547Z,71.51
2022-09-27T12:52:14.481Z,71.18
2022-09-27T12:53:14.474Z,70.86